Edwardsville, Pennsylvania
Current Conditions -  °F | °C
As of 2:54 PM on Sunday 25 Jan 2015 (Local Time) from KAVP Reporting Station
Clear Clear  
Wind Chill: 25°   Ceiling: Unl
Heat Index: 33°   Visibility: 10mi
Dew Point:   Wind: 9mph
Humidity: 37%   Direction: 350°N
Pressure: 29.81"   Gusts: NA
Location:  41.2768°N, 75.8997°W
Report Text: KAVP 251954Z AUTO 35008KT 10SM CLR 01/M13 A2981 RMK AO2 SLP101 T00061128
Loading
Personal Weather Stations






























Interactive Weather Map New forecast layout! Learn more

10-Day Weather Forecast

Advertisements
Track Severe Weather on mobile